sensor_id;sensor_type;location;lat;lon;timestamp;P1;durP1;ratioP1;P2;durP2;ratioP2
75021;SDS011;63583;49.976;20.182;2023-06-22T00:00:42;10.95;;;5.90;;
75021;SDS011;63583;49.976;20.182;2023-06-22T00:03:27;7.47;;;5.28;;
75021;SDS011;63583;49.976;20.182;2023-06-22T00:05:53;8.95;;;5.15;;
75021;SDS011;63583;49.976;20.182;2023-06-22T00:08:19;9.15;;;6.00;;
75021;SDS011;63583;49.976;20.182;2023-06-22T00:10:45;9.65;;;6.50;;
75021;SDS011;63583;49.976;20.182;2023-06-22T00:13:12;9.23;;;5.82;;
75021;SDS011;63583;49.976;20.182;2023-06-22T00:15:39;8.43;;;6.00;;
75021;SDS011;63583;49.976;20.182;2023-06-22T00:18:06;10.40;;;6.18;;
75021;SDS011;63583;49.976;20.182;2023-06-22T00:20:32;11.05;;;6.25;;
75021;SDS011;63583;49.976;20.182;2023-06-22T00:23:01;9.55;;;6.28;;
75021;SDS011;63583;49.976;20.182;2023-06-22T00:25:31;11.27;;;6.47;;
75021;SDS011;63583;49.976;20.182;2023-06-22T00:27:57;10.68;;;6.60;;
75021;SDS011;63583;49.976;20.182;2023-06-22T00:30:23;9.85;;;6.50;;
75021;SDS011;63583;49.976;20.182;2023-06-22T00:32:48;9.27;;;6.30;;
75021;SDS011;63583;49.976;20.182;2023-06-22T00:35:14;10.90;;;7.13;;
75021;SDS011;63583;49.976;20.182;2023-06-22T00:37:39;9.85;;;6.65;;
75021;SDS011;63583;49.976;20.182;2023-06-22T00:40:08;12.15;;;6.45;;
75021;SDS011;63583;49.976;20.182;2023-06-22T00:42:37;11.07;;;6.50;;
75021;SDS011;63583;49.976;20.182;2023-06-22T00:45:05;11.60;;;6.60;;
75021;SDS011;63583;49.976;20.182;2023-06-22T00:47:32;9.77;;;6.28;;
75021;SDS011;63583;49.976;20.182;2023-06-22T00:49:59;11.52;;;6.35;;
75021;SDS011;63583;49.976;20.182;2023-06-22T00:52:25;10.48;;;6.43;;
75021;SDS011;63583;49.976;20.182;2023-06-22T00:54:52;9.23;;;6.45;;
75021;SDS011;63583;49.976;20.182;2023-06-22T00:57:19;11.55;;;6.90;;
75021;SDS011;63583;49.976;20.182;2023-06-22T00:59:45;11.55;;;6.63;;
75021;SDS011;63583;49.976;20.182;2023-06-22T01:02:13;10.55;;;6.30;;
75021;SDS011;63583;49.976;20.182;2023-06-22T01:04:39;9.85;;;6.88;;
75021;SDS011;63583;49.976;20.182;2023-06-22T01:07:19;10.35;;;6.85;;
75021;SDS011;63583;49.976;20.182;2023-06-22T01:12:47;9.88;;;5.75;;
75021;SDS011;63583;49.976;20.182;2023-06-22T01:15:25;8.73;;;5.55;;
75021;SDS011;63583;49.976;20.182;2023-06-22T01:18:03;11.35;;;6.53;;
75021;SDS011;63583;49.976;20.182;2023-06-22T01:20:30;9.63;;;6.07;;
75021;SDS011;63583;49.976;20.182;2023-06-22T01:23:06;9.40;;;6.00;;
75021;SDS011;63583;49.976;20.182;2023-06-22T01:28:46;9.15;;;5.60;;
75021;SDS011;63583;49.976;20.182;2023-06-22T01:31:16;8.38;;;5.50;;
75021;SDS011;63583;49.976;20.182;2023-06-22T01:33:45;9.52;;;6.00;;
75021;SDS011;63583;49.976;20.182;2023-06-22T01:36:15;11.68;;;5.80;;
75021;SDS011;63583;49.976;20.182;2023-06-22T01:38:42;7.75;;;5.47;;
75021;SDS011;63583;49.976;20.182;2023-06-22T01:41:10;10.00;;;5.18;;
75021;SDS011;63583;49.976;20.182;2023-06-22T01:43:36;10.40;;;6.07;;
75021;SDS011;63583;49.976;20.182;2023-06-22T01:46:02;8.88;;;5.47;;
75021;SDS011;63583;49.976;20.182;2023-06-22T01:48:28;12.23;;;5.70;;
75021;SDS011;63583;49.976;20.182;2023-06-22T01:50:54;8.82;;;5.22;;
75021;SDS011;63583;49.976;20.182;2023-06-22T01:53:21;8.73;;;5.05;;
75021;SDS011;63583;49.976;20.182;2023-06-22T01:55:47;9.32;;;4.85;;
75021;SDS011;63583;49.976;20.182;2023-06-22T01:58:13;8.80;;;4.65;;
75021;SDS011;63583;49.976;20.182;2023-06-22T02:00:40;7.80;;;4.97;;
75021;SDS011;63583;49.976;20.182;2023-06-22T02:03:13;10.02;;;4.90;;
75021;SDS011;63583;49.976;20.182;2023-06-22T02:05:46;10.38;;;5.55;;
75021;SDS011;63583;49.976;20.182;2023-06-22T02:08:22;8.85;;;4.45;;
75021;SDS011;63583;49.976;20.182;2023-06-22T02:10:50;9.75;;;5.70;;
75021;SDS011;63583;49.976;20.182;2023-06-22T02:13:18;9.40;;;5.15;;
75021;SDS011;63583;49.976;20.182;2023-06-22T02:15:45;8.00;;;5.18;;
75021;SDS011;63583;49.976;20.182;2023-06-22T02:18:11;7.70;;;4.93;;
75021;SDS011;63583;49.976;20.182;2023-06-22T02:20:38;8.68;;;5.45;;
75021;SDS011;63583;49.976;20.182;2023-06-22T02:23:07;9.93;;;5.40;;
75021;SDS011;63583;49.976;20.182;2023-06-22T02:25:33;9.07;;;5.40;;
75021;SDS011;63583;49.976;20.182;2023-06-22T02:27:59;11.48;;;5.60;;
75021;SDS011;63583;49.976;20.182;2023-06-22T02:30:25;8.95;;;5.18;;
75021;SDS011;63583;49.976;20.182;2023-06-22T02:32:50;8.98;;;5.35;;
75021;SDS011;63583;49.976;20.182;2023-06-22T02:35:27;8.65;;;5.47;;
75021;SDS011;63583;49.976;20.182;2023-06-22T02:37:59;10.35;;;5.85;;
75021;SDS011;63583;49.976;20.182;2023-06-22T02:40:26;9.73;;;5.40;;
75021;SDS011;63583;49.976;20.182;2023-06-22T02:42:52;7.80;;;5.25;;
75021;SDS011;63583;49.976;20.182;2023-06-22T02:45:18;7.68;;;5.20;;
75021;SDS011;63583;49.976;20.182;2023-06-22T02:47:43;7.65;;;5.60;;
75021;SDS011;63583;49.976;20.182;2023-06-22T02:50:12;9.05;;;5.22;;
75021;SDS011;63583;49.976;20.182;2023-06-22T02:52:37;9.20;;;6.25;;
75021;SDS011;63583;49.976;20.182;2023-06-22T02:55:04;9.80;;;5.72;;
75021;SDS011;63583;49.976;20.182;2023-06-22T02:57:32;11.15;;;5.97;;
75021;SDS011;63583;49.976;20.182;2023-06-22T02:59:58;9.32;;;5.70;;
75021;SDS011;63583;49.976;20.182;2023-06-22T03:02:24;8.30;;;5.82;;
75021;SDS011;63583;49.976;20.182;2023-06-22T03:04:51;11.35;;;5.70;;
75021;SDS011;63583;49.976;20.182;2023-06-22T03:07:19;8.75;;;5.85;;
75021;SDS011;63583;49.976;20.182;2023-06-22T03:09:45;9.63;;;5.72;;
75021;SDS011;63583;49.976;20.182;2023-06-22T03:12:11;12.43;;;6.45;;
75021;SDS011;63583;49.976;20.182;2023-06-22T03:14:37;8.45;;;5.47;;
75021;SDS011;63583;49.976;20.182;2023-06-22T03:17:04;8.55;;;5.65;;
75021;SDS011;63583;49.976;20.182;2023-06-22T03:19:30;9.80;;;5.40;;
75021;SDS011;63583;49.976;20.182;2023-06-22T03:21:57;8.02;;;5.65;;
75021;SDS011;63583;49.976;20.182;2023-06-22T03:24:23;12.13;;;6.10;;
75021;SDS011;63583;49.976;20.182;2023-06-22T03:26:48;10.60;;;6.05;;
75021;SDS011;63583;49.976;20.182;2023-06-22T03:29:14;10.25;;;6.13;;
75021;SDS011;63583;49.976;20.182;2023-06-22T03:31:40;12.63;;;6.35;;
75021;SDS011;63583;49.976;20.182;2023-06-22T03:34:06;12.40;;;5.93;;
75021;SDS011;63583;49.976;20.182;2023-06-22T03:36:32;9.85;;;6.28;;
75021;SDS011;63583;49.976;20.182;2023-06-22T03:38:57;10.10;;;6.05;;
75021;SDS011;63583;49.976;20.182;2023-06-22T03:41:23;9.90;;;6.20;;
75021;SDS011;63583;49.976;20.182;2023-06-22T03:43:49;12.98;;;6.75;;
75021;SDS011;63583;49.976;20.182;2023-06-22T03:46:14;11.32;;;6.07;;
75021;SDS011;63583;49.976;20.182;2023-06-22T03:48:40;10.27;;;5.63;;
75021;SDS011;63583;49.976;20.182;2023-06-22T03:51:06;8.25;;;6.10;;
75021;SDS011;63583;49.976;20.182;2023-06-22T03:53:31;8.48;;;5.90;;
75021;SDS011;63583;49.976;20.182;2023-06-22T03:55:57;8.93;;;6.10;;
75021;SDS011;63583;49.976;20.182;2023-06-22T03:58:23;10.55;;;6.00;;
75021;SDS011;63583;49.976;20.182;2023-06-22T04:00:50;9.35;;;5.68;;
75021;SDS011;63583;49.976;20.182;2023-06-22T04:03:17;10.10;;;5.95;;
75021;SDS011;63583;49.976;20.182;2023-06-22T04:05:46;8.63;;;5.68;;
75021;SDS011;63583;49.976;20.182;2023-06-22T04:08:13;14.68;;;7.00;;
75021;SDS011;63583;49.976;20.182;2023-06-22T04:10:39;8.30;;;5.65;;
75021;SDS011;63583;49.976;20.182;2023-06-22T04:13:05;11.27;;;5.70;;
75021;SDS011;63583;49.976;20.182;2023-06-22T04:15:32;9.27;;;5.60;;
75021;SDS011;63583;49.976;20.182;2023-06-22T04:17:57;10.23;;;6.10;;
75021;SDS011;63583;49.976;20.182;2023-06-22T04:20:23;10.98;;;6.22;;
75021;SDS011;63583;49.976;20.182;2023-06-22T04:22:53;8.10;;;5.90;;
75021;SDS011;63583;49.976;20.182;2023-06-22T04:25:19;13.60;;;7.32;;
75021;SDS011;63583;49.976;20.182;2023-06-22T04:27:45;11.07;;;5.30;;
75021;SDS011;63583;49.976;20.182;2023-06-22T04:30:11;9.45;;;4.47;;
75021;SDS011;63583;49.976;20.182;2023-06-22T04:32:37;10.40;;;5.28;;
75021;SDS011;63583;49.976;20.182;2023-06-22T04:35:03;7.10;;;5.10;;
75021;SDS011;63583;49.976;20.182;2023-06-22T04:37:32;7.35;;;4.75;;
75021;SDS011;63583;49.976;20.182;2023-06-22T04:39:58;9.15;;;5.30;;
75021;SDS011;63583;49.976;20.182;2023-06-22T04:42:27;7.35;;;4.82;;
75021;SDS011;63583;49.976;20.182;2023-06-22T04:44:53;8.25;;;4.85;;
75021;SDS011;63583;49.976;20.182;2023-06-22T04:47:19;11.27;;;5.50;;
75021;SDS011;63583;49.976;20.182;2023-06-22T04:49:45;7.32;;;4.53;;
75021;SDS011;63583;49.976;20.182;2023-06-22T04:52:11;8.23;;;4.68;;
75021;SDS011;63583;49.976;20.182;2023-06-22T04:54:38;7.00;;;4.43;;
75021;SDS011;63583;49.976;20.182;2023-06-22T04:57:05;8.35;;;4.50;;
75021;SDS011;63583;49.976;20.182;2023-06-22T04:59:35;7.60;;;4.55;;
75021;SDS011;63583;49.976;20.182;2023-06-22T05:02:02;7.80;;;4.22;;
75021;SDS011;63583;49.976;20.182;2023-06-22T05:04:28;6.90;;;5.18;;
75021;SDS011;63583;49.976;20.182;2023-06-22T05:06:58;8.35;;;4.50;;
75021;SDS011;63583;49.976;20.182;2023-06-22T05:09:28;8.82;;;4.82;;
75021;SDS011;63583;49.976;20.182;2023-06-22T05:11:54;10.82;;;5.65;;
75021;SDS011;63583;49.976;20.182;2023-06-22T05:14:21;8.48;;;4.97;;
75021;SDS011;63583;49.976;20.182;2023-06-22T05:16:47;8.20;;;4.95;;
75021;SDS011;63583;49.976;20.182;2023-06-22T05:19:13;10.70;;;5.22;;
75021;SDS011;63583;49.976;20.182;2023-06-22T05:21:39;9.90;;;5.22;;
75021;SDS011;63583;49.976;20.182;2023-06-22T05:24:05;9.35;;;5.00;;
75021;SDS011;63583;49.976;20.182;2023-06-22T05:26:31;9.88;;;4.90;;
75021;SDS011;63583;49.976;20.182;2023-06-22T05:28:59;10.65;;;5.25;;
75021;SDS011;63583;49.976;20.182;2023-06-22T05:31:26;9.30;;;4.90;;
75021;SDS011;63583;49.976;20.182;2023-06-22T05:33:53;9.70;;;4.75;;
75021;SDS011;63583;49.976;20.182;2023-06-22T05:36:19;10.15;;;5.32;;
75021;SDS011;63583;49.976;20.182;2023-06-22T05:38:46;9.60;;;5.13;;
75021;SDS011;63583;49.976;20.182;2023-06-22T05:41:12;11.68;;;5.10;;
75021;SDS011;63583;49.976;20.182;2023-06-22T05:43:39;8.60;;;5.18;;
75021;SDS011;63583;49.976;20.182;2023-06-22T05:46:05;9.45;;;5.15;;
75021;SDS011;63583;49.976;20.182;2023-06-22T05:48:30;9.85;;;5.88;;
75021;SDS011;63583;49.976;20.182;2023-06-22T05:50:56;10.75;;;5.57;;
75021;SDS011;63583;49.976;20.182;2023-06-22T05:53:22;10.05;;;5.63;;
75021;SDS011;63583;49.976;20.182;2023-06-22T05:55:48;11.55;;;6.75;;
75021;SDS011;63583;49.976;20.182;2023-06-22T05:58:14;14.43;;;6.40;;
75021;SDS011;63583;49.976;20.182;2023-06-22T06:00:40;12.50;;;7.28;;
75021;SDS011;63583;49.976;20.182;2023-06-22T06:03:06;11.52;;;6.55;;
75021;SDS011;63583;49.976;20.182;2023-06-22T06:05:33;13.32;;;8.20;;
75021;SDS011;63583;49.976;20.182;2023-06-22T06:07:59;13.68;;;7.45;;
75021;SDS011;63583;49.976;20.182;2023-06-22T06:10:26;12.48;;;6.80;;
75021;SDS011;63583;49.976;20.182;2023-06-22T06:12:52;12.45;;;7.10;;
75021;SDS011;63583;49.976;20.182;2023-06-22T06:15:17;11.57;;;7.50;;
75021;SDS011;63583;49.976;20.182;2023-06-22T06:17:47;12.93;;;7.32;;
75021;SDS011;63583;49.976;20.182;2023-06-22T06:20:18;12.55;;;8.27;;
75021;SDS011;63583;49.976;20.182;2023-06-22T06:25:11;13.98;;;9.00;;
75021;SDS011;63583;49.976;20.182;2023-06-22T06:27:47;13.68;;;8.10;;
75021;SDS011;63583;49.976;20.182;2023-06-22T06:30:15;15.38;;;8.68;;
75021;SDS011;63583;49.976;20.182;2023-06-22T06:32:41;14.85;;;8.02;;
75021;SDS011;63583;49.976;20.182;2023-06-22T06:35:09;13.18;;;8.38;;
75021;SDS011;63583;49.976;20.182;2023-06-22T06:37:36;16.92;;;9.50;;
75021;SDS011;63583;49.976;20.182;2023-06-22T06:40:06;12.80;;;8.32;;
75021;SDS011;63583;49.976;20.182;2023-06-22T06:42:35;15.88;;;8.48;;
75021;SDS011;63583;49.976;20.182;2023-06-22T06:45:06;15.23;;;8.63;;
75021;SDS011;63583;49.976;20.182;2023-06-22T06:47:32;13.27;;;8.60;;
75021;SDS011;63583;49.976;20.182;2023-06-22T06:49:58;14.55;;;7.88;;
75021;SDS011;63583;49.976;20.182;2023-06-22T06:52:23;15.07;;;8.52;;
75021;SDS011;63583;49.976;20.182;2023-06-22T06:54:49;15.98;;;8.93;;
75021;SDS011;63583;49.976;20.182;2023-06-22T06:57:16;14.48;;;8.48;;
75021;SDS011;63583;49.976;20.182;2023-06-22T06:59:43;14.80;;;7.85;;
75021;SDS011;63583;49.976;20.182;2023-06-22T07:02:08;14.07;;;8.23;;
75021;SDS011;63583;49.976;20.182;2023-06-22T07:04:34;12.93;;;8.90;;
75021;SDS011;63583;49.976;20.182;2023-06-22T07:07:00;15.60;;;8.75;;
75021;SDS011;63583;49.976;20.182;2023-06-22T07:09:27;15.15;;;7.65;;
75021;SDS011;63583;49.976;20.182;2023-06-22T07:11:52;13.10;;;7.78;;
75021;SDS011;63583;49.976;20.182;2023-06-22T07:14:18;14.02;;;8.20;;
75021;SDS011;63583;49.976;20.182;2023-06-22T07:16:44;16.55;;;9.27;;
75021;SDS011;63583;49.976;20.182;2023-06-22T07:19:11;12.90;;;8.25;;
75021;SDS011;63583;49.976;20.182;2023-06-22T07:21:38;17.25;;;9.55;;
75021;SDS011;63583;49.976;20.182;2023-06-22T07:24:05;17.55;;;12.38;;
75021;SDS011;63583;49.976;20.182;2023-06-22T07:26:33;17.17;;;10.52;;
75021;SDS011;63583;49.976;20.182;2023-06-22T07:28:59;15.85;;;10.85;;
75021;SDS011;63583;49.976;20.182;2023-06-22T07:31:25;16.67;;;10.50;;
75021;SDS011;63583;49.976;20.182;2023-06-22T07:33:51;18.83;;;10.63;;
75021;SDS011;63583;49.976;20.182;2023-06-22T07:36:17;15.88;;;9.43;;
75021;SDS011;63583;49.976;20.182;2023-06-22T07:38:43;17.58;;;10.90;;
75021;SDS011;63583;49.976;20.182;2023-06-22T07:41:09;19.20;;;13.65;;
75021;SDS011;63583;49.976;20.182;2023-06-22T07:43:35;19.42;;;11.75;;
75021;SDS011;63583;49.976;20.182;2023-06-22T07:46:02;20.15;;;12.20;;
75021;SDS011;63583;49.976;20.182;2023-06-22T07:48:28;18.65;;;11.85;;
75021;SDS011;63583;49.976;20.182;2023-06-22T07:50:54;20.65;;;12.45;;
75021;SDS011;63583;49.976;20.182;2023-06-22T07:53:20;18.92;;;12.77;;
75021;SDS011;63583;49.976;20.182;2023-06-22T07:55:48;17.05;;;11.82;;
75021;SDS011;63583;49.976;20.182;2023-06-22T07:58:14;19.27;;;12.82;;
75021;SDS011;63583;49.976;20.182;2023-06-22T08:00:40;18.63;;;12.52;;
75021;SDS011;63583;49.976;20.182;2023-06-22T08:03:06;24.38;;;13.77;;
75021;SDS011;63583;49.976;20.182;2023-06-22T08:05:32;19.48;;;12.32;;
75021;SDS011;63583;49.976;20.182;2023-06-22T08:07:58;20.70;;;13.18;;
75021;SDS011;63583;49.976;20.182;2023-06-22T08:10:23;22.42;;;15.23;;
75021;SDS011;63583;49.976;20.182;2023-06-22T08:12:50;24.30;;;15.70;;
75021;SDS011;63583;49.976;20.182;2023-06-22T08:15:17;22.83;;;13.77;;
75021;SDS011;63583;49.976;20.182;2023-06-22T08:17:43;22.35;;;15.77;;
75021;SDS011;63583;49.976;20.182;2023-06-22T08:20:09;28.27;;;17.40;;
75021;SDS011;63583;49.976;20.182;2023-06-22T08:22:39;23.40;;;15.40;;
75021;SDS011;63583;49.976;20.182;2023-06-22T08:25:06;26.95;;;16.92;;
75021;SDS011;63583;49.976;20.182;2023-06-22T08:27:32;23.25;;;14.95;;
75021;SDS011;63583;49.976;20.182;2023-06-22T08:29:58;22.00;;;14.85;;
75021;SDS011;63583;49.976;20.182;2023-06-22T08:32:25;29.05;;;19.25;;
75021;SDS011;63583;49.976;20.182;2023-06-22T08:34:55;24.67;;;18.05;;
75021;SDS011;63583;49.976;20.182;2023-06-22T08:37:22;24.70;;;16.92;;
75021;SDS011;63583;49.976;20.182;2023-06-22T08:39:56;22.52;;;16.27;;
75021;SDS011;63583;49.976;20.182;2023-06-22T08:42:23;25.35;;;15.65;;
75021;SDS011;63583;49.976;20.182;2023-06-22T08:44:50;27.98;;;19.65;;
75021;SDS011;63583;49.976;20.182;2023-06-22T08:47:15;30.55;;;22.55;;
75021;SDS011;63583;49.976;20.182;2023-06-22T08:49:41;27.13;;;18.90;;
75021;SDS011;63583;49.976;20.182;2023-06-22T08:52:07;26.90;;;18.05;;
75021;SDS011;63583;49.976;20.182;2023-06-22T08:54:33;27.15;;;19.38;;
75021;SDS011;63583;49.976;20.182;2023-06-22T08:57:00;25.63;;;17.15;;
75021;SDS011;63583;49.976;20.182;2023-06-22T08:59:26;23.75;;;16.92;;
75021;SDS011;63583;49.976;20.182;2023-06-22T09:01:52;22.10;;;16.25;;
75021;SDS011;63583;49.976;20.182;2023-06-22T09:04:17;24.02;;;16.95;;
75021;SDS011;63583;49.976;20.182;2023-06-22T09:06:43;20.92;;;15.05;;
75021;SDS011;63583;49.976;20.182;2023-06-22T09:09:12;23.08;;;16.88;;
75021;SDS011;63583;49.976;20.182;2023-06-22T09:11:38;21.33;;;16.13;;
75021;SDS011;63583;49.976;20.182;2023-06-22T09:14:04;22.20;;;16.25;;
75021;SDS011;63583;49.976;20.182;2023-06-22T09:16:29;20.33;;;15.23;;
75021;SDS011;63583;49.976;20.182;2023-06-22T09:18:55;20.88;;;15.82;;
75021;SDS011;63583;49.976;20.182;2023-06-22T09:21:21;22.48;;;15.90;;
75021;SDS011;63583;49.976;20.182;2023-06-22T09:23:47;20.42;;;16.05;;
75021;SDS011;63583;49.976;20.182;2023-06-22T09:26:19;18.95;;;14.38;;
75021;SDS011;63583;49.976;20.182;2023-06-22T09:28:45;19.55;;;13.98;;
75021;SDS011;63583;49.976;20.182;2023-06-22T09:31:11;17.55;;;12.10;;
75021;SDS011;63583;49.976;20.182;2023-06-22T09:33:37;21.27;;;14.68;;
75021;SDS011;63583;49.976;20.182;2023-06-22T09:36:08;22.33;;;14.88;;
75021;SDS011;63583;49.976;20.182;2023-06-22T09:38:34;19.00;;;14.20;;
75021;SDS011;63583;49.976;20.182;2023-06-22T09:41:03;21.63;;;14.63;;
75021;SDS011;63583;49.976;20.182;2023-06-22T09:43:31;18.30;;;13.60;;
75021;SDS011;63583;49.976;20.182;2023-06-22T09:45:57;19.00;;;13.70;;
75021;SDS011;63583;49.976;20.182;2023-06-22T09:48:23;15.50;;;12.48;;
75021;SDS011;63583;49.976;20.182;2023-06-22T09:50:49;15.35;;;12.43;;
75021;SDS011;63583;49.976;20.182;2023-06-22T09:53:14;15.95;;;12.00;;
75021;SDS011;63583;49.976;20.182;2023-06-22T09:55:40;16.40;;;11.23;;
75021;SDS011;63583;49.976;20.182;2023-06-22T09:58:06;14.75;;;10.88;;
75021;SDS011;63583;49.976;20.182;2023-06-22T10:00:32;13.30;;;10.18;;
75021;SDS011;63583;49.976;20.182;2023-06-22T10:02:57;14.50;;;9.75;;
75021;SDS011;63583;49.976;20.182;2023-06-22T10:05:23;12.80;;;10.05;;
75021;SDS011;63583;49.976;20.182;2023-06-22T10:07:50;12.23;;;9.55;;
75021;SDS011;63583;49.976;20.182;2023-06-22T10:10:16;14.85;;;10.23;;
75021;SDS011;63583;49.976;20.182;2023-06-22T10:12:42;13.88;;;10.38;;
75021;SDS011;63583;49.976;20.182;2023-06-22T10:15:11;14.70;;;9.77;;
75021;SDS011;63583;49.976;20.182;2023-06-22T10:17:37;16.75;;;9.90;;
75021;SDS011;63583;49.976;20.182;2023-06-22T10:20:03;13.35;;;8.80;;
75021;SDS011;63583;49.976;20.182;2023-06-22T10:22:37;11.98;;;8.18;;
75021;SDS011;63583;49.976;20.182;2023-06-22T10:25:06;10.48;;;7.95;;
75021;SDS011;63583;49.976;20.182;2023-06-22T10:27:32;11.73;;;8.80;;
75021;SDS011;63583;49.976;20.182;2023-06-22T10:29:59;12.30;;;9.38;;
75021;SDS011;63583;49.976;20.182;2023-06-22T10:32:24;10.80;;;8.75;;
75021;SDS011;63583;49.976;20.182;2023-06-22T10:34:50;12.57;;;9.73;;
75021;SDS011;63583;49.976;20.182;2023-06-22T10:37:15;15.45;;;10.85;;
75021;SDS011;63583;49.976;20.182;2023-06-22T10:39:41;14.63;;;10.43;;
75021;SDS011;63583;49.976;20.182;2023-06-22T10:42:06;14.90;;;10.98;;
75021;SDS011;63583;49.976;20.182;2023-06-22T10:44:32;13.32;;;9.23;;
75021;SDS011;63583;49.976;20.182;2023-06-22T10:46:58;12.57;;;9.32;;
75021;SDS011;63583;49.976;20.182;2023-06-22T10:49:24;12.93;;;9.65;;
75021;SDS011;63583;49.976;20.182;2023-06-22T10:51:49;13.20;;;8.38;;
75021;SDS011;63583;49.976;20.182;2023-06-22T10:54:15;12.35;;;8.98;;
75021;SDS011;63583;49.976;20.182;2023-06-22T10:56:43;13.05;;;9.05;;
75021;SDS011;63583;49.976;20.182;2023-06-22T10:59:09;10.65;;;8.60;;
75021;SDS011;63583;49.976;20.182;2023-06-22T11:01:35;13.95;;;9.40;;
75021;SDS011;63583;49.976;20.182;2023-06-22T11:04:00;13.73;;;9.40;;
75021;SDS011;63583;49.976;20.182;2023-06-22T11:06:26;11.07;;;8.82;;
75021;SDS011;63583;49.976;20.182;2023-06-22T11:08:52;13.00;;;8.85;;
75021;SDS011;63583;49.976;20.182;2023-06-22T11:11:17;11.15;;;8.70;;
75021;SDS011;63583;49.976;20.182;2023-06-22T11:13:43;13.85;;;9.43;;
75021;SDS011;63583;49.976;20.182;2023-06-22T11:16:09;11.32;;;8.75;;
75021;SDS011;63583;49.976;20.182;2023-06-22T11:18:35;15.32;;;9.48;;
75021;SDS011;63583;49.976;20.182;2023-06-22T11:21:01;12.77;;;9.27;;
75021;SDS011;63583;49.976;20.182;2023-06-22T11:23:27;11.60;;;8.30;;
75021;SDS011;63583;49.976;20.182;2023-06-22T11:25:56;11.50;;;8.55;;
75021;SDS011;63583;49.976;20.182;2023-06-22T11:28:22;11.65;;;8.45;;
75021;SDS011;63583;49.976;20.182;2023-06-22T11:30:47;10.15;;;8.30;;
75021;SDS011;63583;49.976;20.182;2023-06-22T11:33:13;9.45;;;7.53;;
75021;SDS011;63583;49.976;20.182;2023-06-22T11:35:39;9.63;;;7.72;;
75021;SDS011;63583;49.976;20.182;2023-06-22T11:38:05;12.68;;;8.05;;
75021;SDS011;63583;49.976;20.182;2023-06-22T11:40:30;9.98;;;7.78;;
75021;SDS011;63583;49.976;20.182;2023-06-22T11:42:56;10.80;;;7.70;;
75021;SDS011;63583;49.976;20.182;2023-06-22T11:45:22;9.93;;;7.30;;
75021;SDS011;63583;49.976;20.182;2023-06-22T11:47:48;8.90;;;6.82;;
75021;SDS011;63583;49.976;20.182;2023-06-22T11:50:13;11.25;;;7.93;;
75021;SDS011;63583;49.976;20.182;2023-06-22T11:52:39;11.40;;;7.25;;
75021;SDS011;63583;49.976;20.182;2023-06-22T11:55:05;12.18;;;7.50;;
75021;SDS011;63583;49.976;20.182;2023-06-22T11:57:38;9.27;;;7.22;;
75021;SDS011;63583;49.976;20.182;2023-06-22T12:00:16;10.15;;;7.43;;
75021;SDS011;63583;49.976;20.182;2023-06-22T12:02:43;9.73;;;7.15;;
75021;SDS011;63583;49.976;20.182;2023-06-22T12:05:10;11.90;;;7.75;;
75021;SDS011;63583;49.976;20.182;2023-06-22T12:07:36;11.55;;;8.00;;
75021;SDS011;63583;49.976;20.182;2023-06-22T12:10:02;10.07;;;8.13;;
75021;SDS011;63583;49.976;20.182;2023-06-22T12:12:29;11.07;;;7.80;;
75021;SDS011;63583;49.976;20.182;2023-06-22T12:14:54;11.70;;;7.78;;
75021;SDS011;63583;49.976;20.182;2023-06-22T12:17:20;11.43;;;7.78;;
75021;SDS011;63583;49.976;20.182;2023-06-22T12:19:45;9.35;;;7.32;;
75021;SDS011;63583;49.976;20.182;2023-06-22T12:22:11;10.10;;;7.70;;
75021;SDS011;63583;49.976;20.182;2023-06-22T12:24:37;8.65;;;7.22;;
75021;SDS011;63583;49.976;20.182;2023-06-22T12:27:03;11.10;;;7.57;;
75021;SDS011;63583;49.976;20.182;2023-06-22T12:29:29;10.73;;;8.18;;
75021;SDS011;63583;49.976;20.182;2023-06-22T12:31:54;12.20;;;8.25;;
75021;SDS011;63583;49.976;20.182;2023-06-22T12:34:20;11.55;;;7.47;;
75021;SDS011;63583;49.976;20.182;2023-06-22T12:36:46;13.95;;;7.32;;
75021;SDS011;63583;49.976;20.182;2023-06-22T12:39:14;9.90;;;7.53;;
75021;SDS011;63583;49.976;20.182;2023-06-22T12:41:39;9.88;;;7.30;;
75021;SDS011;63583;49.976;20.182;2023-06-22T12:44:05;8.95;;;7.20;;
75021;SDS011;63583;49.976;20.182;2023-06-22T12:46:31;10.23;;;7.65;;
75021;SDS011;63583;49.976;20.182;2023-06-22T12:49:02;10.60;;;7.78;;
75021;SDS011;63583;49.976;20.182;2023-06-22T12:51:29;9.98;;;7.32;;
75021;SDS011;63583;49.976;20.182;2023-06-22T12:53:55;10.18;;;8.02;;
75021;SDS011;63583;49.976;20.182;2023-06-22T12:56:21;10.15;;;7.75;;
75021;SDS011;63583;49.976;20.182;2023-06-22T12:58:47;11.13;;;7.90;;
75021;SDS011;63583;49.976;20.182;2023-06-22T13:01:13;10.80;;;8.75;;
75021;SDS011;63583;49.976;20.182;2023-06-22T13:03:39;9.23;;;8.00;;
75021;SDS011;63583;49.976;20.182;2023-06-22T13:06:04;10.73;;;7.93;;
75021;SDS011;63583;49.976;20.182;2023-06-22T13:08:30;10.20;;;7.50;;
75021;SDS011;63583;49.976;20.182;2023-06-22T13:10:56;10.48;;;7.45;;
75021;SDS011;63583;49.976;20.182;2023-06-22T13:13:24;9.73;;;7.35;;
75021;SDS011;63583;49.976;20.182;2023-06-22T13:15:52;7.93;;;6.50;;
75021;SDS011;63583;49.976;20.182;2023-06-22T13:18:19;9.00;;;7.00;;
75021;SDS011;63583;49.976;20.182;2023-06-22T13:20:45;11.48;;;7.53;;
75021;SDS011;63583;49.976;20.182;2023-06-22T13:23:10;7.70;;;6.82;;
75021;SDS011;63583;49.976;20.182;2023-06-22T13:25:36;8.73;;;6.82;;
75021;SDS011;63583;49.976;20.182;2023-06-22T13:28:02;9.80;;;7.40;;
75021;SDS011;63583;49.976;20.182;2023-06-22T13:30:28;10.80;;;7.95;;
75021;SDS011;63583;49.976;20.182;2023-06-22T13:32:55;13.70;;;6.88;;
75021;SDS011;63583;49.976;20.182;2023-06-22T13:35:20;11.07;;;7.05;;
75021;SDS011;63583;49.976;20.182;2023-06-22T13:37:46;8.60;;;6.88;;
75021;SDS011;63583;49.976;20.182;2023-06-22T13:40:12;10.98;;;7.90;;
75021;SDS011;63583;49.976;20.182;2023-06-22T13:42:37;8.77;;;6.90;;
75021;SDS011;63583;49.976;20.182;2023-06-22T13:45:04;9.68;;;6.72;;
75021;SDS011;63583;49.976;20.182;2023-06-22T13:47:31;9.02;;;7.28;;
75021;SDS011;63583;49.976;20.182;2023-06-22T13:49:57;9.18;;;7.03;;
75021;SDS011;63583;49.976;20.182;2023-06-22T13:52:23;9.15;;;7.20;;
75021;SDS011;63583;49.976;20.182;2023-06-22T13:54:49;8.93;;;7.05;;
75021;SDS011;63583;49.976;20.182;2023-06-22T13:57:14;8.95;;;7.07;;
75021;SDS011;63583;49.976;20.182;2023-06-22T13:59:40;13.70;;;7.57;;
75021;SDS011;63583;49.976;20.182;2023-06-22T14:02:06;8.43;;;6.80;;
75021;SDS011;63583;49.976;20.182;2023-06-22T14:04:32;9.30;;;7.60;;
75021;SDS011;63583;49.976;20.182;2023-06-22T14:06:57;10.73;;;7.80;;
75021;SDS011;63583;49.976;20.182;2023-06-22T14:09:23;10.23;;;7.82;;
75021;SDS011;63583;49.976;20.182;2023-06-22T14:11:48;9.98;;;7.97;;
75021;SDS011;63583;49.976;20.182;2023-06-22T14:14:14;10.75;;;7.28;;
75021;SDS011;63583;49.976;20.182;2023-06-22T14:16:40;8.82;;;7.28;;
75021;SDS011;63583;49.976;20.182;2023-06-22T14:19:05;9.27;;;7.20;;
75021;SDS011;63583;49.976;20.182;2023-06-22T14:21:31;10.25;;;6.65;;
75021;SDS011;63583;49.976;20.182;2023-06-22T14:23:57;7.40;;;6.30;;
75021;SDS011;63583;49.976;20.182;2023-06-22T14:26:22;10.57;;;7.35;;
75021;SDS011;63583;49.976;20.182;2023-06-22T14:28:48;8.82;;;6.75;;